Burden Field-(Rabbit Run) Airport

61WA · Washington, États-Unis

METAR anciennes 61WA · Burden Field-(Rabbit Run) Airport

Tu vois ci-dessous les METAR des derniers jours. Sélectionne une année pour parcourir les METAR plus anciens, à partir de l'année 2007.

28 novembre 2022

Temps Code Temps Temp. Vue Base cloud Vent METAR/SPECI
23:53
V
-4 °C 10 mi - Var 000° 0 kt SPECI KFHR 290753Z AUTO 00000KT 10SM CLR M04/M09 A3005 RMK AO2 SLP175 T10391089 400391050
23:53
V
-4 °C 10 mi - Var 000° 0 kt METAR KFHR 290753Z AUTO 00000KT 10SM CLR M04/M09 A3005 RMK AO2 SLP175 T10391089 400391050
22:53
V
-4 °C 10 mi - 290° 290° 3 kt METAR KFHR 290653Z AUTO 29003KT 10SM CLR M04/M08 A3003 RMK AO2 SLP171 T10391083
21:53
V
-4 °C 10 mi - 280° 280° 3 kt METAR KFHR 290553Z AUTO 28003KT 10SM CLR M04/M08 A3003 RMK AO2 SLP170 T10391083 10017 21039 53011
20:53
V
-3 °C 10 mi - Var 000° 0 kt METAR KFHR 290453Z AUTO 00000KT 10SM CLR M03/M09 A3002 RMK AO2 SLP166 T10331094
19:53
V
-1 °C 10 mi - 030° 030° 6 kt METAR KFHR 290353Z AUTO 03006KT 10SM CLR M01/M11 A3000 RMK AO2 SLP161 T10111106
18:53
V
-2 °C 10 mi - Var 000° 0 kt METAR KFHR 290253Z AUTO 00000KT 10SM CLR M02/M08 A3000 RMK AO2 SLP160 T10221083 51006
17:53
V
-1 °C 10 mi - 050° 050° 4 kt METAR KFHR 290153Z AUTO 05004KT 10SM CLR M01/M09 A2999 RMK AO2 SLP158 T10061089
16:53
V
1 °C 10 mi - 040° 040° 7 kt METAR KFHR 290053Z AUTO 04007KT 10SM CLR 01/M10 A2999 RMK AO2 SLP157 T00061100
15:53
V
2 °C 10 mi - 040° 040° 6 kt METAR KFHR 282353Z AUTO 04006KT 10SM CLR 02/M09 A2998 RMK AO2 SLP153 T00171094 10039 20017 53010
14:53
V
2 °C 10 mi - 010° 010° 9 kt METAR KFHR 282253Z AUTO 01009KT 10SM CLR 02/M08 A2996 RMK AO2 SLP148 T00221083
13:53
V
3 °C 10 mi 6.500 ft 030° 030° 10 kt METAR KFHR 282153Z AUTO 03010KT 10SM BKN065 03/M09 A2996 RMK AO2 SLP146 T00331094
12:53
V
3 °C 10 mi - 020° 020° 13 kt METAR KFHR 282053Z AUTO 02013KT 10SM FEW070 03/M08 A2995 RMK AO2 SLP142 T00331083 50009
11:53
V
3 °C 10 mi 7.000 ft 040° 040° 12 - 20 kt METAR KFHR 281953Z AUTO 04012G20KT 10SM FEW050 OVC070 03/M09 A2995 RMK AO2 SLP144 T00331089
10:53
V
2 °C 10 mi 7.500 ft 030° 030° 7 kt METAR KFHR 281853Z AUTO 03007KT 10SM SCT060 OVC075 02/M06 A2994 RMK AO2 SLP140 T00221056
09:53
V
3 °C 10 mi 6.000 ft 030° 030° 7 kt METAR KFHR 281753Z AUTO 03007KT 10SM FEW041 OVC060 03/M06 A2992 RMK AO2 SLP134 60004 T00281056 10028 20011 53018
08:53
V
2 °C 10 mi 3.700 ft 040° 040° 7 kt METAR KFHR 281653Z AUTO 04007KT 10SM BKN037 OVC047 02/M03 A2990 RMK AO2 SLP128 T00221028
08:11
V
2 °C 10 mi 3.000 ft 010° 010° 4 kt METAR KFHR 281611Z AUTO 01004KT 10SM BKN030 OVC039 02/01 A2989 RMK AO2 T00170006
07:53
M
1 °C 10 mi 2.600 ft 290° 290° 3 kt METAR KFHR 281553Z AUTO 29003KT 10SM BKN026 OVC041 01/01 A2988 RMK AO2 RAB1454E11SNB11E43 SLP120 P0002 T00110006
06:53
M
3 °C 10 mi 2.400 ft 030° 030° 4 kt METAR KFHR 281453Z AUTO 03004KT 10SM SCT015 BKN024 OVC030 03/02 A2987 RMK AO2 RAB13E36UPB21E23 SLP116 P0000 60002 T00280017 52010
05:53
M
3 °C 10 mi 2.800 ft Var Var 3 kt METAR KFHR 281353Z AUTO VRB03KT 10SM FEW018 BKN028 OVC034 03/02 A2986 RMK AO2 RAE50 SLP112 P0002 T00280017 $
05:06
M
3 °C 9 mi 2.200 ft Var 000° 0 kt METAR KFHR 281306Z AUTO 9SM -RA FEW017 BKN022 OVC043 03/01 A2986 RMK AO2 P0000 T00280011 $
04:53
V
3 °C 10 mi 3.300 ft Var 000° 0 kt METAR KFHR 281253Z AUTO 00000KT 10SM -RA SCT018 BKN033 OVC045 03/01 A2985 RMK AO2 RAB47 SLP110 P0000 T00280011 $
04:09
V
3 °C 10 mi - Var 000° 0 kt METAR KFHR 281209Z AUTO 00000KT 10SM SCT028 03/01 A2984 RMK AO2 T00280006 $
03:53
M
3 °C 10 mi 2.900 ft Var Var 3 kt METAR KFHR 281153Z AUTO VRB03KT 10SM BKN029 03/01 A2984 RMK AO2 SLP106 70004 T00280006 10039 20022 52005 $
03:39
M
3 °C 10 mi 2.500 ft Var Var 3 kt METAR KFHR 281139Z AUTO VRB03KT 10SM BKN025 03/01 A2984 RMK AO2 T00280006 $
02:53
V
3 °C 10 mi - Var Var 3 kt METAR KFHR 281053Z AUTO VRB03KT 10SM CLR 03/01 A2984 RMK AO2 SLP104 T00280006 $
01:53
V
3 °C 10 mi - Var 000° 0 kt METAR KFHR 280953Z AUTO 00000KT 10SM FEW070 SCT085 03/01 A2982 RMK AO2 SLP099 T00280006 $
00:53
V
3 °C 10 mi 8.000 ft 340° 340° 3 kt METAR KFHR 280853Z AUTO 34003KT 10SM BKN080 03/01 A2982 RMK AO2 SLP099 T00330011 56003 $

27 novembre 2022

Temps Code Temps Temp. Vue Base cloud Vent METAR/SPECI
23:53
V
3 °C 10 mi 6.000 ft Var 000° 0 kt METAR KFHR 280753Z AUTO 00000KT 10SM BKN060 OVC075 03/02 A2983 RMK AO2 SLP100 T00330022 400890006 $
22:53
V
2 °C 10 mi - 280° 280° 3 kt METAR KFHR 280653Z AUTO 28003KT 10SM SCT070 02/02 A2983 RMK AO2 SLP101 T00220017 $
21:53
V
3 °C 10 mi - Var Var 4 kt METAR KFHR 280553Z AUTO VRB04KT 10SM CLR 03/02 A2983 RMK AO2 RAE00 SLP102 P0000 60004 T00330017 10061 20033 56017 $
20:53
V
4 °C 9 mi 3.200 ft 230° 230° 5 kt METAR KFHR 280453Z AUTO 23005KT 9SM -RA FEW020 BKN032 OVC055 04/03 A2985 RMK AO2 RAB24 SLP108 P0001 T00390028 $
19:53
V
4 °C 10 mi 5.500 ft Var 000° 0 kt METAR KFHR 280353Z AUTO 00000KT 10SM OVC055 04/03 A2987 RMK AO2 RAE19 SLP115 P0001 T00440028 $
18:53
V
4 °C 10 mi 3.400 ft Var Var 6 kt METAR KFHR 280253Z AUTO VRB06KT 10SM -RA SCT021 OVC034 04/03 A2988 RMK AO2 RAB05 SLP120 P0002 60002 T00440028 56007 $
18:44
M
4 °C 8 mi 2.100 ft Var 000° 0 kt METAR KFHR 280244Z AUTO 8SM -RA BKN021 OVC030 04/02 A2989 RMK AO2 RAB05 P0002 T00440022 $
17:53
V
6 °C 10 mi 7.000 ft Var Var 5 kt METAR KFHR 280153Z AUTO VRB05KT 10SM BKN070 BKN090 OVC100 06/02 A2989 RMK AO2 SLP124 T00560017 $
16:53
V
5 °C 10 mi 10.000 ft 240° 240° 5 kt METAR KFHR 280053Z AUTO 24005KT 10SM BKN100 05/01 A2990 RMK AO2 SLP127 T00500011 $
15:53
V
6 °C 10 mi 11.000 ft 230° 230° 4 kt METAR KFHR 272353Z AUTO 23004KT 10SM BKN110 06/02 A2991 RMK AO2 SLP130 T00610017 10089 20061 56014 $
14:53
V
7 °C 10 mi - 230° 230° 9 - 16 kt METAR KFHR 272253Z AUTO 23009G16KT 190V250 10SM CLR 07/01 A2992 RMK AO2 SLP131 T00720011 $
13:53
V
8 °C 10 mi - 240° 240° 8 - 16 kt METAR KFHR 272153Z AUTO 24008G16KT 210V280 10SM SCT046 08/02 A2993 RMK AO2 SLP136 T00780022 $
12:53
V
8 °C 10 mi - Var Var 6 kt METAR KFHR 272053Z AUTO VRB06KT 10SM CLR 08/01 A2995 RMK AO2 SLP142 T00830006 58013 $
11:53
V
8 °C 10 mi - Var Var 3 kt METAR KFHR 271953Z AUTO VRB03KT 10SM CLR 08/00 A2997 RMK AO2 SLP150 T00830000 $
10:53
V
7 °C 10 mi - Var Var 3 kt METAR KFHR 271853Z AUTO VRB03KT 10SM CLR 07/M01 A2999 RMK AO2 SLP155 T00721006 $
09:53
V
6 °C 10 mi - 050° 050° 3 kt METAR KFHR 271753Z AUTO 05003KT 10SM CLR 06/00 A2999 RMK AO2 SLP155 T00610000 10061 20006 51008 $
08:53
V
3 °C 10 mi - Var 000° 0 kt METAR KFHR 271653Z AUTO 00000KT 10SM CLR 03/02 A2999 RMK AO2 SLP155 T00280017 $
07:53
V
2 °C 10 mi - 350° 350° 3 kt METAR KFHR 271553Z AUTO 35003KT 10SM CLR 02/M01 A2998 RMK AO2 SLP151 T00171006 $
06:53
V
3 °C 10 mi - Var Var 3 kt METAR KFHR 271453Z AUTO VRB03KT 10SM CLR 03/M01 A2996 RMK AO2 SLP147 T00281011 53001 $
05:53
V
1 °C 10 mi - 260° 260° 3 kt METAR KFHR 271353Z AUTO 26003KT 10SM CLR 01/M01 A2996 RMK AO2 SLP147 T00061006 $
04:53
V
2 °C 10 mi - Var 000° 0 kt METAR KFHR 271253Z AUTO 00000KT 10SM CLR 02/00 A2996 RMK AO2 SLP146 T00170000 $
03:53
V
2 °C 10 mi - 290° 290° 3 kt METAR KFHR 271153Z AUTO 29003KT 10SM CLR 02/01 A2996 RMK AO2 SLP147 60021 70037 T00220011 10083 20022 51025 $
02:53
V
4 °C 10 mi - Var 000° 0 kt METAR KFHR 271053Z AUTO 00000KT 10SM CLR 04/02 A2995 RMK AO2 SLP142 T00440017 $
01:53
V
7 °C 10 mi 10.000 ft 290° 290° 8 - 16 kt METAR KFHR 270953Z AUTO 29008G16KT 10SM SCT080 OVC100 07/03 A2992 RMK AO2 SLP133 T00720028 $
00:53
V
8 °C 10 mi 7.500 ft 240° 240° 10 - 20 kt METAR KFHR 270853Z AUTO 24010G20KT 10SM FEW017 SCT050 OVC075 08/07 A2989 RMK AO2 RAE36 SLP121 P0004 60021 T00830067 56034 $

26 novembre 2022

Temps Code Temps Temp. Vue Base cloud Vent METAR/SPECI
23:53
M
8 °C 4 mi 2.000 ft 180° 180° 6 - 14 kt METAR KFHR 270753Z AUTO 18006G14KT 4SM RA BR BKN020 OVC025 08/07 A2990 RMK AO2 SLP127 P0010 T00780067 400780006 $
22:53
M
8 °C 7 mi 2.100 ft 190° 190° 9 kt METAR KFHR 270653Z AUTO 19009KT 7SM -RA BKN021 OVC028 08/06 A2994 RMK AO2 SLP139 P0007 T00780061 $
21:53
M
8 °C 7 mi 2.600 ft 170° 170° 7 kt METAR KFHR 270553Z AUTO 17007KT 7SM -RA OVC026 08/07 A2999 RMK AO2 SLP155 P0008 60016 T00780067 10078 20061 58045 $
21:39
M
8 °C 5 mi 2.800 ft 180° 180° 9 kt METAR KFHR 270539Z AUTO 18009KT 5SM -RA BR OVC028 08/07 A3000 RMK AO2 P0006 T00780067 $
20:53
V
8 °C 9 mi 3.500 ft 160° 160° 11 kt METAR KFHR 270453Z AUTO 16011KT 9SM -RA OVC035 08/07 A3005 RMK AO2 SLP175 P0004 T00780067 $
19:53
V
8 °C 10 mi 4.500 ft 170° 170° 9 - 19 kt METAR KFHR 270353Z AUTO 17009G19KT 10SM -RA FEW011 SCT014 OVC045 08/06 A3009 RMK AO2 RAB0257 SLP191 P0002 T00780061 $
19:16
M
8 °C 10 mi 1.100 ft 170° 170° 9 - 16 kt METAR KFHR 270316Z AUTO 17009G16KT 10SM -RA BKN011 OVC034 08/06 A3012 RMK AO2 RAB0257 P0000 T00780061 $
18:53
V
7 °C 10 mi 3.400 ft 160° 160° 8 kt METAR KFHR 270253Z AUTO 16008KT 10SM FEW011 BKN034 OVC045 07/06 A3012 RMK AO2 SLP200 60002 T00720056 58045 $
18:25
V
7 °C 10 mi 3.400 ft 150° 150° 13 kt METAR KFHR 270225Z AUTO 15013KT 10SM FEW011 BKN034 OVC045 07/06 A3015 RMK AO2 T00720056 $
17:53
M
7 °C 10 mi 2.600 ft 150° 150° 9 - 18 kt METAR KFHR 270153Z AUTO 15009G18KT 10SM SCT009 BKN026 OVC045 07/06 A3018 RMK AO2 RAE17 SLP219 P0001 T00720056 $
17:33
I
7 °C 10 mi 900 ft 170° 170° 11 - 20 kt METAR KFHR 270133Z AUTO 17011G20KT 10SM OVC009 07/06 A3019 RMK AO2 RAE17 P0001 T00670056 $
16:53
M
7 °C 10 mi 1.000 ft 170° 170° 12 - 20 kt METAR KFHR 270053Z AUTO 17012G20KT 10SM -RA OVC010 07/05 A3022 RMK AO2 RAB01 SLP235 P0001 T00670050 $
15:53
M
6 °C 10 mi 1.100 ft 160° 160° 13 - 22 kt METAR KFHR 262353Z AUTO 16013G22KT 10SM BKN011 OVC024 06/04 A3026 RMK AO2 RAB2259E10 SLP247 P0000 60000 T00610044 10067 20061 57026 $
15:08
M
6 °C 8 mi 2.300 ft 150° 150° 14 - 20 kt METAR KFHR 262308Z AUTO 15014G20KT 8SM -RA SCT012 BKN023 OVC047 06/04 A3027 RMK AO2 RAB2259 P0000 T00610044 $
14:53
M
7 °C 10 mi 1.200 ft 150° 150° 11 - 20 kt METAR KFHR 262253Z AUTO 15011G20KT 10SM BKN012 BKN030 OVC050 07/04 A3028 RMK AO2 SLP256 T00670044 $
13:53
M
6 °C 10 mi 1.100 ft 150° 150° 12 - 22 kt METAR KFHR 262153Z AUTO 15012G22KT 10SM BKN011 OVC033 06/04 A3031 RMK AO2 SLP264 T00610044 $
12:53
V
6 °C 10 mi 3.400 ft 160° 160° 12 - 22 kt METAR KFHR 262053Z AUTO 16012G22KT 10SM OVC034 06/04 A3033 RMK AO2 SLP273 T00610044 58021 $
11:53
V
6 °C 10 mi 3.300 ft 160° 160° 13 - 21 kt METAR KFHR 261953Z AUTO 16013G21KT 10SM SCT009 OVC033 06/04 A3036 RMK AO2 SLP282 T00610044 $
11:12
V
6 °C 10 mi 3.100 ft 160° 160° 13 - 19 kt METAR KFHR 261912Z AUTO 16013G19KT 10SM FEW009 BKN031 OVC060 06/04 A3038 RMK AO2 T00610044 $
10:53
M
6 °C 10 mi 2.900 ft 160° 160° 11 kt METAR KFHR 261853Z AUTO 16011KT 10SM FEW009 BKN029 OVC055 06/04 A3040 RMK AO2 SLP294 T00610044 $
09:53
M
6 °C 10 mi 2.100 ft 180° 180° 9 kt METAR KFHR 261753Z AUTO 18009KT 10SM BKN021 OVC026 06/05 A3040 RMK AO2 SLP296 T00610050 10061 20006 58003 $
09:24
M
6 °C 10 mi 1.600 ft 190° 190° 5 kt METAR KFHR 261724Z AUTO 19005KT 10SM BKN016 OVC020 06/05 A3041 RMK AO2 T00610050 $
09:11
M
6 °C 10 mi 1.400 ft 190° 190° 5 kt METAR KFHR 261711Z AUTO 19005KT 10SM BKN014 BKN022 OVC026 06/05 A3041 RMK AO2 T00560050 $
08:53
M
5 °C 10 mi 2.600 ft 190° 190° 4 kt METAR KFHR 261653Z AUTO 19004KT 10SM FEW016 BKN026 OVC050 05/04 A3042 RMK AO2 SLP300 T00500044 $
08:44
M
4 °C 10 mi 2.600 ft 220° 220° 3 kt METAR KFHR 261644Z AUTO 22003KT 10SM BKN026 OVC055 04/04 A3042 RMK AO2 T00440044 $
07:53
V
2 °C 7 mi 11.000 ft 240° 240° 4 kt METAR KFHR 261553Z AUTO 24004KT 7SM FEW008 OVC110 02/02 A3041 RMK AO2 SLP300 T00220017 $
07:39
I
2 °C 2½ mi 12.000 ft Var 000° 0 kt METAR KFHR 261539Z AUTO 00000KT 2 1/2SM BR SCT008 OVC120 02/02 A3041 RMK AO2 T00170017 $
07:32
I
1 °C 1 mi 800 ft Var 000° 0 kt METAR KFHR 261532Z AUTO 00000KT 1SM BR BKN008 BKN016 OVC120 01/01 A3041 RMK AO2 T00110011 $
07:25
L
1 °C ¾ mi 1.000 ft Var 000° 0 kt METAR KFHR 261525Z AUTO 00000KT 3/4SM BR BKN010 BKN016 BKN110 01/01 A3041 RMK AO2 T00110011 $
07:22
I
2 °C 1¼ mi 1.600 ft Var 000° 0 kt METAR KFHR 261522Z AUTO 00000KT 1 1/4SM BR SCT010 BKN016 BKN120 02/01 A3042 RMK AO2 T00170011 $
07:12
M
2 °C 6 mi 1.400 ft 280° 280° 3 kt METAR KFHR 261512Z AUTO 28003KT 6SM BR BKN014 BKN110 02/02 A3042 RMK AO2 T00170017 $
07:03
I
3 °C 3 mi - Var 000° 0 kt METAR KFHR 261503Z AUTO 00000KT 3SM BR SCT011 03/02 A3042 RMK AO2 T00280022 $
06:59
I
3 °C 2½ mi 1.100 ft Var 000° 0 kt METAR KFHR 261459Z AUTO 00000KT 2 1/2SM BR BKN011 03/02 A3041 RMK AO2 VIS 1 1/2V5 T00280022 $
06:53
M
2 °C 4 mi - Var 000° 0 kt METAR KFHR 261453Z AUTO 00000KT 4SM BR SCT011 02/02 A3041 RMK AO2 SLP299 T00220022 $
06:35
I
2 °C 3 mi 500 ft Var 000° 0 kt METAR KFHR 261435Z AUTO 00000KT 3SM BR BKN005 02/02 A3042 RMK AO2 T00220017 $
06:31
I
2 °C 1 mi 500 ft Var 000° 0 kt METAR KFHR 261431Z AUTO 00000KT 1SM BR VV005 02/02 A3042 RMK AO2 VIS 1/4V4 T00220017 $
06:08
L
1 °C ¾ mi 400 ft Var 000° 0 kt METAR KFHR 261408Z AUTO 00000KT 3/4SM BR VV004 01/01 A3041 RMK AO2 T00110011 $
06:05
I
1 °C 1¼ mi 600 ft Var 000° 0 kt METAR KFHR 261405Z AUTO 00000KT 1 1/4SM BR BKN006 01/01 A3041 RMK AO2 T00110011 $
05:53
M
2 °C 4 mi - Var 000° 0 kt METAR KFHR 261353Z AUTO 00000KT 4SM BR 02/02 A3041 RMK AO2 SLP300 T00220022 $
05:29
L
3 °C 3 mi 400 ft Var 000° 0 kt METAR KFHR 261329Z AUTO 00000KT 3SM BR OVC004 03/02 A3041 RMK AO2 T00280017
05:18
L
2 °C 1¼ mi 400 ft Var 000° 0 kt METAR KFHR 261318Z AUTO 00000KT 1 1/4SM BR OVC004 02/01 A3040 RMK AO2 T00170011
05:05
L
1 °C ¾ mi 400 ft Var 000° 0 kt METAR KFHR 261305Z AUTO 00000KT 3/4SM BR VV004 01/01 A3040 RMK AO2 T00110011
04:53
L
1 °C 2½ mi 400 ft Var 000° 0 kt METAR KFHR 261253Z AUTO 00000KT 2 1/2SM BR BKN004 01/01 A3040 RMK AO2 SLP295 T00110011
04:42
L
2 °C 3 mi 400 ft Var 000° 0 kt METAR KFHR 261242Z AUTO 00000KT 3SM BR BKN004 02/02 A3040 RMK AO2 T00220017
04:37
M
2 °C 4 mi - Var 000° 0 kt METAR KFHR 261237Z AUTO 00000KT 4SM BR FEW002 SCT007 02/01 A3040 RMK AO2 T00170011
03:53
V
3 °C 6 mi - Var 000° 0 kt METAR KFHR 261153Z AUTO 00000KT 6SM BR CLR 03/02 A3041 RMK AO2 SLP296 70031 I1000 I6000 T00280022 10028 20011 53002
03:18
M
2 °C 4 mi - Var 000° 0 kt METAR KFHR 261118Z AUTO 00000KT 4SM BR FEW006 02/02 A3040 RMK AO2 I1000 T00220017
03:06
I
2 °C 1¾ mi - Var 000° 0 kt METAR KFHR 261106Z AUTO 00000KT 1 3/4SM BR FEW007 02/01 A3041 RMK AO2 T00170011
02:56
I
2 °C 2 mi - Var 000° 0 kt METAR KFHR 261056Z AUTO 00000KT 2SM BR FEW007 02/02 A3041 RMK AO2 T00220017
02:46
L
1 °C ¾ mi 700 ft Var 000° 0 kt SPECI KFHR 261046Z AUTO 00000KT 3/4SM BR VV007 01/01 A3041 RMK AO2 VIS 1/2V3 T00110011
02:42
I
1 °C 1¾ mi - Var 000° 0 kt METAR KFHR 261042Z AUTO 00000KT 1 3/4SM BR CLR 01/01 A3041 RMK AO2 VIS 1/2V5 T00110011

Nous et des tiers suivons ton comportement Internet sur notre site Web à l'aide de cookies. Si tu continues, nous supposons que tu es d'accord avec notre Politique en matière de cookies.